sensor_id;sensor_type;location;lat;lon;timestamp;temperature;humidity
9509;DHT22;4792;50.088;8.122;2022-10-16T00:01:07;13.70;99.90
9509;DHT22;4792;50.088;8.122;2022-10-16T00:03:38;13.70;99.90
9509;DHT22;4792;50.088;8.122;2022-10-16T00:06:07;13.70;99.90
9509;DHT22;4792;50.088;8.122;2022-10-16T00:08:37;13.70;99.90
9509;DHT22;4792;50.088;8.122;2022-10-16T00:11:06;13.60;99.90
9509;DHT22;4792;50.088;8.122;2022-10-16T00:13:36;13.70;99.90
9509;DHT22;4792;50.088;8.122;2022-10-16T00:16:05;13.60;99.90
9509;DHT22;4792;50.088;8.122;2022-10-16T00:18:35;13.60;99.90
9509;DHT22;4792;50.088;8.122;2022-10-16T00:21:05;13.60;99.90
9509;DHT22;4792;50.088;8.122;2022-10-16T00:23:33;13.60;99.90
9509;DHT22;4792;50.088;8.122;2022-10-16T00:26:04;13.60;99.90
9509;DHT22;4792;50.088;8.122;2022-10-16T00:28:33;13.50;99.90
9509;DHT22;4792;50.088;8.122;2022-10-16T00:31:03;13.50;99.90
9509;DHT22;4792;50.088;8.122;2022-10-16T00:33:31;13.50;99.90
9509;DHT22;4792;50.088;8.122;2022-10-16T00:36:01;13.50;99.90
9509;DHT22;4792;50.088;8.122;2022-10-16T00:38:29;13.50;99.90
9509;DHT22;4792;50.088;8.122;2022-10-16T00:40:57;13.50;99.90
9509;DHT22;4792;50.088;8.122;2022-10-16T00:43:41;13.50;99.90
9509;DHT22;4792;50.088;8.122;2022-10-16T00:46:19;13.60;99.90
9509;DHT22;4792;50.088;8.122;2022-10-16T00:48:53;13.50;99.90
9509;DHT22;4792;50.088;8.122;2022-10-16T00:51:30;13.60;99.90
9509;DHT22;4792;50.088;8.122;2022-10-16T00:53:59;13.60;99.90
9509;DHT22;4792;50.088;8.122;2022-10-16T00:56:27;13.60;99.90
9509;DHT22;4792;50.088;8.122;2022-10-16T00:58:55;13.60;99.90
9509;DHT22;4792;50.088;8.122;2022-10-16T01:01:24;13.60;99.90
9509;DHT22;4792;50.088;8.122;2022-10-16T01:03:52;13.60;99.90
9509;DHT22;4792;50.088;8.122;2022-10-16T01:06:25;13.50;99.90
9509;DHT22;4792;50.088;8.122;2022-10-16T01:09:11;13.50;99.90
9509;DHT22;4792;50.088;8.122;2022-10-16T01:11:45;13.60;99.90
9509;DHT22;4792;50.088;8.122;2022-10-16T01:14:22;13.60;99.90
9509;DHT22;4792;50.088;8.122;2022-10-16T01:16:55;13.50;99.90
9509;DHT22;4792;50.088;8.122;2022-10-16T01:19:36;13.60;99.90
9509;DHT22;4792;50.088;8.122;2022-10-16T01:22:09;13.60;99.90
9509;DHT22;4792;50.088;8.122;2022-10-16T01:24:40;13.60;99.90
9509;DHT22;4792;50.088;8.122;2022-10-16T01:27:11;13.60;99.90
9509;DHT22;4792;50.088;8.122;2022-10-16T01:29:45;13.60;99.90
9509;DHT22;4792;50.088;8.122;2022-10-16T01:32:20;13.60;99.90
9509;DHT22;4792;50.088;8.122;2022-10-16T01:34:51;13.60;99.90
9509;DHT22;4792;50.088;8.122;2022-10-16T01:37:27;13.60;99.90
9509;DHT22;4792;50.088;8.122;2022-10-16T01:39:59;13.60;99.90
9509;DHT22;4792;50.088;8.122;2022-10-16T01:42:33;13.60;99.90
9509;DHT22;4792;50.088;8.122;2022-10-16T01:45:05;13.60;99.90
9509;DHT22;4792;50.088;8.122;2022-10-16T01:47:35;13.60;99.90
9509;DHT22;4792;50.088;8.122;2022-10-16T01:50:05;13.70;99.90
9509;DHT22;4792;50.088;8.122;2022-10-16T01:52:37;13.70;99.90
9509;DHT22;4792;50.088;8.122;2022-10-16T01:55:08;13.70;99.90
9509;DHT22;4792;50.088;8.122;2022-10-16T01:57:42;13.70;99.90
9509;DHT22;4792;50.088;8.122;2022-10-16T02:00:13;13.70;99.90
9509;DHT22;4792;50.088;8.122;2022-10-16T02:02:48;13.70;99.90
9509;DHT22;4792;50.088;8.122;2022-10-16T02:05:23;13.70;99.90
9509;DHT22;4792;50.088;8.122;2022-10-16T02:07:53;13.70;99.90
9509;DHT22;4792;50.088;8.122;2022-10-16T02:10:23;13.70;99.90
9509;DHT22;4792;50.088;8.122;2022-10-16T02:12:57;13.70;99.90
9509;DHT22;4792;50.088;8.122;2022-10-16T02:15:26;13.70;99.90
9509;DHT22;4792;50.088;8.122;2022-10-16T02:17:54;13.70;99.90
9509;DHT22;4792;50.088;8.122;2022-10-16T02:20:28;13.70;99.90
9509;DHT22;4792;50.088;8.122;2022-10-16T02:22:58;13.70;99.90
9509;DHT22;4792;50.088;8.122;2022-10-16T02:25:30;13.70;99.90
9509;DHT22;4792;50.088;8.122;2022-10-16T02:28:03;13.70;99.90
9509;DHT22;4792;50.088;8.122;2022-10-16T02:30:36;13.60;99.90
9509;DHT22;4792;50.088;8.122;2022-10-16T02:33:08;13.70;99.90
9509;DHT22;4792;50.088;8.122;2022-10-16T02:35:38;13.70;99.90
9509;DHT22;4792;50.088;8.122;2022-10-16T02:38:06;13.70;99.90
9509;DHT22;4792;50.088;8.122;2022-10-16T02:40:36;13.70;99.90
9509;DHT22;4792;50.088;8.122;2022-10-16T02:43:06;13.70;99.90
9509;DHT22;4792;50.088;8.122;2022-10-16T02:45:35;13.70;99.90
9509;DHT22;4792;50.088;8.122;2022-10-16T02:48:04;13.70;99.90
9509;DHT22;4792;50.088;8.122;2022-10-16T02:50:32;13.70;99.90
9509;DHT22;4792;50.088;8.122;2022-10-16T02:53:00;13.70;99.90
9509;DHT22;4792;50.088;8.122;2022-10-16T02:55:29;13.60;99.90
9509;DHT22;4792;50.088;8.122;2022-10-16T02:57:57;13.70;99.90
9509;DHT22;4792;50.088;8.122;2022-10-16T03:00:26;13.70;99.90
9509;DHT22;4792;50.088;8.122;2022-10-16T03:02:55;13.70;99.90
9509;DHT22;4792;50.088;8.122;2022-10-16T03:05:23;13.70;99.90
9509;DHT22;4792;50.088;8.122;2022-10-16T03:07:51;13.70;99.90
9509;DHT22;4792;50.088;8.122;2022-10-16T03:10:20;13.60;99.90
9509;DHT22;4792;50.088;8.122;2022-10-16T03:12:48;13.70;99.90
9509;DHT22;4792;50.088;8.122;2022-10-16T03:15:16;13.70;99.90
9509;DHT22;4792;50.088;8.122;2022-10-16T03:17:45;13.70;99.90
9509;DHT22;4792;50.088;8.122;2022-10-16T03:20:14;13.70;99.90
9509;DHT22;4792;50.088;8.122;2022-10-16T03:22:42;13.70;99.90
9509;DHT22;4792;50.088;8.122;2022-10-16T03:25:10;13.60;99.90
9509;DHT22;4792;50.088;8.122;2022-10-16T03:27:38;13.60;99.90
9509;DHT22;4792;50.088;8.122;2022-10-16T03:30:07;13.60;99.90
9509;DHT22;4792;50.088;8.122;2022-10-16T03:32:36;13.60;99.90
9509;DHT22;4792;50.088;8.122;2022-10-16T03:35:06;13.60;99.90
9509;DHT22;4792;50.088;8.122;2022-10-16T03:37:34;13.50;99.90
9509;DHT22;4792;50.088;8.122;2022-10-16T03:40:03;13.50;99.90
9509;DHT22;4792;50.088;8.122;2022-10-16T03:42:31;13.50;99.90
9509;DHT22;4792;50.088;8.122;2022-10-16T03:44:59;13.50;99.90
9509;DHT22;4792;50.088;8.122;2022-10-16T03:47:28;13.60;99.90
9509;DHT22;4792;50.088;8.122;2022-10-16T03:49:56;13.50;99.90
9509;DHT22;4792;50.088;8.122;2022-10-16T03:52:25;13.50;99.90
9509;DHT22;4792;50.088;8.122;2022-10-16T03:54:53;13.60;99.90
9509;DHT22;4792;50.088;8.122;2022-10-16T03:57:22;13.60;99.90
9509;DHT22;4792;50.088;8.122;2022-10-16T03:59:50;13.50;99.90
9509;DHT22;4792;50.088;8.122;2022-10-16T04:02:18;13.50;99.90
9509;DHT22;4792;50.088;8.122;2022-10-16T04:04:46;13.40;99.90
9509;DHT22;4792;50.088;8.122;2022-10-16T04:07:14;13.40;99.90
9509;DHT22;4792;50.088;8.122;2022-10-16T04:09:44;13.40;99.90
9509;DHT22;4792;50.088;8.122;2022-10-16T04:12:12;13.40;99.90
9509;DHT22;4792;50.088;8.122;2022-10-16T04:14:40;13.40;99.90
9509;DHT22;4792;50.088;8.122;2022-10-16T04:17:08;13.40;99.90
9509;DHT22;4792;50.088;8.122;2022-10-16T04:19:36;13.40;99.90
9509;DHT22;4792;50.088;8.122;2022-10-16T04:22:04;13.40;99.90
9509;DHT22;4792;50.088;8.122;2022-10-16T04:24:32;13.30;99.90
9509;DHT22;4792;50.088;8.122;2022-10-16T04:27:02;13.30;99.90
9509;DHT22;4792;50.088;8.122;2022-10-16T04:29:30;13.30;99.90
9509;DHT22;4792;50.088;8.122;2022-10-16T04:31:58;13.30;99.90
9509;DHT22;4792;50.088;8.122;2022-10-16T04:34:26;13.30;99.90
9509;DHT22;4792;50.088;8.122;2022-10-16T04:36:54;13.30;99.90
9509;DHT22;4792;50.088;8.122;2022-10-16T04:39:22;13.30;99.90
9509;DHT22;4792;50.088;8.122;2022-10-16T04:41:50;13.30;99.90
9509;DHT22;4792;50.088;8.122;2022-10-16T04:44:20;13.30;99.90
9509;DHT22;4792;50.088;8.122;2022-10-16T04:46:50;13.30;99.90
9509;DHT22;4792;50.088;8.122;2022-10-16T04:49:18;13.30;99.90
9509;DHT22;4792;50.088;8.122;2022-10-16T04:51:46;13.40;99.90
9509;DHT22;4792;50.088;8.122;2022-10-16T04:54:15;13.30;99.90
9509;DHT22;4792;50.088;8.122;2022-10-16T04:56:43;13.40;99.90
9509;DHT22;4792;50.088;8.122;2022-10-16T04:59:14;13.40;99.90
9509;DHT22;4792;50.088;8.122;2022-10-16T05:01:44;13.40;99.90
9509;DHT22;4792;50.088;8.122;2022-10-16T05:04:13;13.40;99.90
9509;DHT22;4792;50.088;8.122;2022-10-16T05:06:42;13.40;99.90
9509;DHT22;4792;50.088;8.122;2022-10-16T05:09:10;13.30;99.90
9509;DHT22;4792;50.088;8.122;2022-10-16T05:11:38;13.30;99.90
9509;DHT22;4792;50.088;8.122;2022-10-16T05:14:06;13.40;99.90
9509;DHT22;4792;50.088;8.122;2022-10-16T05:16:34;13.40;99.90
9509;DHT22;4792;50.088;8.122;2022-10-16T05:19:04;13.40;99.90
9509;DHT22;4792;50.088;8.122;2022-10-16T05:21:52;13.40;99.90
9509;DHT22;4792;50.088;8.122;2022-10-16T05:24:20;13.40;99.90
9509;DHT22;4792;50.088;8.122;2022-10-16T05:26:49;13.40;99.90
9509;DHT22;4792;50.088;8.122;2022-10-16T05:29:17;13.40;99.90
9509;DHT22;4792;50.088;8.122;2022-10-16T05:31:45;13.40;99.90
9509;DHT22;4792;50.088;8.122;2022-10-16T05:34:15;13.40;99.90
9509;DHT22;4792;50.088;8.122;2022-10-16T05:36:43;13.40;99.90
9509;DHT22;4792;50.088;8.122;2022-10-16T05:39:13;13.40;99.90
9509;DHT22;4792;50.088;8.122;2022-10-16T05:41:41;13.40;99.90
9509;DHT22;4792;50.088;8.122;2022-10-16T05:44:10;13.40;99.90
9509;DHT22;4792;50.088;8.122;2022-10-16T05:46:38;13.40;99.90
9509;DHT22;4792;50.088;8.122;2022-10-16T05:49:06;13.40;99.90
9509;DHT22;4792;50.088;8.122;2022-10-16T05:51:36;13.40;99.90
9509;DHT22;4792;50.088;8.122;2022-10-16T05:54:06;13.40;99.90
9509;DHT22;4792;50.088;8.122;2022-10-16T05:56:34;13.40;99.90
9509;DHT22;4792;50.088;8.122;2022-10-16T05:59:03;13.40;99.90
9509;DHT22;4792;50.088;8.122;2022-10-16T06:01:32;13.40;99.90
9509;DHT22;4792;50.088;8.122;2022-10-16T06:04:00;13.40;99.90
9509;DHT22;4792;50.088;8.122;2022-10-16T06:06:29;13.50;99.90
9509;DHT22;4792;50.088;8.122;2022-10-16T06:08:59;13.50;99.90
9509;DHT22;4792;50.088;8.122;2022-10-16T06:11:29;13.50;99.90
9509;DHT22;4792;50.088;8.122;2022-10-16T06:13:59;13.50;99.90
9509;DHT22;4792;50.088;8.122;2022-10-16T06:16:29;13.40;99.90
9509;DHT22;4792;50.088;8.122;2022-10-16T06:18:57;13.40;99.90
9509;DHT22;4792;50.088;8.122;2022-10-16T06:21:27;13.40;99.90
9509;DHT22;4792;50.088;8.122;2022-10-16T06:23:58;13.40;99.90
9509;DHT22;4792;50.088;8.122;2022-10-16T06:26:28;13.50;99.90
9509;DHT22;4792;50.088;8.122;2022-10-16T06:28:57;13.50;99.90
9509;DHT22;4792;50.088;8.122;2022-10-16T06:31:26;13.50;99.90
9509;DHT22;4792;50.088;8.122;2022-10-16T06:33:58;13.50;99.90
9509;DHT22;4792;50.088;8.122;2022-10-16T06:36:26;13.50;99.90
9509;DHT22;4792;50.088;8.122;2022-10-16T06:38:54;13.50;99.90
9509;DHT22;4792;50.088;8.122;2022-10-16T06:41:23;13.50;99.90
9509;DHT22;4792;50.088;8.122;2022-10-16T06:43:52;13.50;99.90
9509;DHT22;4792;50.088;8.122;2022-10-16T06:46:22;13.50;99.90
9509;DHT22;4792;50.088;8.122;2022-10-16T06:48:50;13.50;99.90
9509;DHT22;4792;50.088;8.122;2022-10-16T06:51:20;13.60;99.90
9509;DHT22;4792;50.088;8.122;2022-10-16T06:53:50;13.60;99.90
9509;DHT22;4792;50.088;8.122;2022-10-16T06:56:36;13.60;99.90
9509;DHT22;4792;50.088;8.122;2022-10-16T06:59:04;13.70;99.90
9509;DHT22;4792;50.088;8.122;2022-10-16T07:01:33;13.70;99.90
9509;DHT22;4792;50.088;8.122;2022-10-16T07:04:01;13.70;99.90
9509;DHT22;4792;50.088;8.122;2022-10-16T07:06:32;13.70;99.90
9509;DHT22;4792;50.088;8.122;2022-10-16T07:09:03;13.80;99.90
9509;DHT22;4792;50.088;8.122;2022-10-16T07:11:32;13.90;99.90
9509;DHT22;4792;50.088;8.122;2022-10-16T07:14:02;13.80;99.90
9509;DHT22;4792;50.088;8.122;2022-10-16T07:16:31;13.80;99.90
9509;DHT22;4792;50.088;8.122;2022-10-16T07:19:02;13.70;99.90
9509;DHT22;4792;50.088;8.122;2022-10-16T07:21:33;13.70;99.90
9509;DHT22;4792;50.088;8.122;2022-10-16T07:24:04;13.70;99.90
9509;DHT22;4792;50.088;8.122;2022-10-16T07:26:35;13.80;99.90
9509;DHT22;4792;50.088;8.122;2022-10-16T07:29:04;13.80;99.90
9509;DHT22;4792;50.088;8.122;2022-10-16T07:31:33;13.80;99.90
9509;DHT22;4792;50.088;8.122;2022-10-16T07:34:01;13.80;99.90
9509;DHT22;4792;50.088;8.122;2022-10-16T07:36:29;13.70;99.90
9509;DHT22;4792;50.088;8.122;2022-10-16T07:38:57;13.80;99.90
9509;DHT22;4792;50.088;8.122;2022-10-16T07:41:26;13.80;99.90
9509;DHT22;4792;50.088;8.122;2022-10-16T07:43:56;13.80;99.90
9509;DHT22;4792;50.088;8.122;2022-10-16T07:46:28;13.80;99.90
9509;DHT22;4792;50.088;8.122;2022-10-16T07:48:56;13.80;99.90
9509;DHT22;4792;50.088;8.122;2022-10-16T07:51:25;13.80;99.90
9509;DHT22;4792;50.088;8.122;2022-10-16T07:53:54;13.80;99.90
9509;DHT22;4792;50.088;8.122;2022-10-16T07:56:22;13.80;99.90
9509;DHT22;4792;50.088;8.122;2022-10-16T07:58:51;13.80;99.90
9509;DHT22;4792;50.088;8.122;2022-10-16T08:01:19;13.90;99.90
9509;DHT22;4792;50.088;8.122;2022-10-16T08:03:50;13.90;99.90
9509;DHT22;4792;50.088;8.122;2022-10-16T08:06:20;14.00;99.90
9509;DHT22;4792;50.088;8.122;2022-10-16T08:08:54;13.90;99.90
9509;DHT22;4792;50.088;8.122;2022-10-16T08:11:22;14.00;99.90
9509;DHT22;4792;50.088;8.122;2022-10-16T08:13:50;14.00;99.90
9509;DHT22;4792;50.088;8.122;2022-10-16T08:16:19;14.10;99.90
9509;DHT22;4792;50.088;8.122;2022-10-16T08:18:48;14.10;99.90
9509;DHT22;4792;50.088;8.122;2022-10-16T08:21:22;14.20;99.90
9509;DHT22;4792;50.088;8.122;2022-10-16T08:23:51;14.20;99.90
9509;DHT22;4792;50.088;8.122;2022-10-16T08:26:25;14.30;99.90
9509;DHT22;4792;50.088;8.122;2022-10-16T08:28:53;14.20;99.90
9509;DHT22;4792;50.088;8.122;2022-10-16T08:31:22;14.20;99.90
9509;DHT22;4792;50.088;8.122;2022-10-16T08:33:52;14.20;99.90
9509;DHT22;4792;50.088;8.122;2022-10-16T08:36:20;14.20;99.90
9509;DHT22;4792;50.088;8.122;2022-10-16T08:38:49;14.20;99.90
9509;DHT22;4792;50.088;8.122;2022-10-16T08:44:35;14.30;99.90
9509;DHT22;4792;50.088;8.122;2022-10-16T08:47:11;14.40;99.90
9509;DHT22;4792;50.088;8.122;2022-10-16T08:49:45;14.50;99.90
9509;DHT22;4792;50.088;8.122;2022-10-16T08:52:18;14.50;99.90
9509;DHT22;4792;50.088;8.122;2022-10-16T08:54:49;14.60;99.90
9509;DHT22;4792;50.088;8.122;2022-10-16T08:57:20;14.60;99.90
9509;DHT22;4792;50.088;8.122;2022-10-16T08:59:51;14.70;99.90
9509;DHT22;4792;50.088;8.122;2022-10-16T09:02:26;14.70;99.90
9509;DHT22;4792;50.088;8.122;2022-10-16T09:05:18;14.80;99.90
9509;DHT22;4792;50.088;8.122;2022-10-16T09:07:57;14.90;99.90
9509;DHT22;4792;50.088;8.122;2022-10-16T09:10:41;15.00;99.90
9509;DHT22;4792;50.088;8.122;2022-10-16T09:13:19;15.10;99.90
9509;DHT22;4792;50.088;8.122;2022-10-16T09:15:55;15.00;99.90
9509;DHT22;4792;50.088;8.122;2022-10-16T09:18:31;15.00;99.90
9509;DHT22;4792;50.088;8.122;2022-10-16T09:21:09;15.00;99.90
9509;DHT22;4792;50.088;8.122;2022-10-16T09:23:38;14.90;99.90
9509;DHT22;4792;50.088;8.122;2022-10-16T09:26:10;14.80;99.90
9509;DHT22;4792;50.088;8.122;2022-10-16T09:28:39;14.90;99.90
9509;DHT22;4792;50.088;8.122;2022-10-16T09:31:13;14.90;99.90
9509;DHT22;4792;50.088;8.122;2022-10-16T09:33:45;15.00;99.90
9509;DHT22;4792;50.088;8.122;2022-10-16T09:36:16;15.00;99.90
9509;DHT22;4792;50.088;8.122;2022-10-16T09:38:45;15.00;99.90
9509;DHT22;4792;50.088;8.122;2022-10-16T09:41:21;15.00;99.90
9509;DHT22;4792;50.088;8.122;2022-10-16T09:43:55;15.10;99.90
9509;DHT22;4792;50.088;8.122;2022-10-16T09:46:28;15.30;99.90
9509;DHT22;4792;50.088;8.122;2022-10-16T09:48:58;15.40;99.90
9509;DHT22;4792;50.088;8.122;2022-10-16T09:51:30;15.60;99.90
9509;DHT22;4792;50.088;8.122;2022-10-16T09:53:59;15.80;99.90
9509;DHT22;4792;50.088;8.122;2022-10-16T09:56:30;15.90;99.90
9509;DHT22;4792;50.088;8.122;2022-10-16T09:59:01;16.00;99.90
9509;DHT22;4792;50.088;8.122;2022-10-16T10:01:36;16.10;99.90
9509;DHT22;4792;50.088;8.122;2022-10-16T10:04:05;16.30;99.90
9509;DHT22;4792;50.088;8.122;2022-10-16T10:06:40;16.40;99.90
9509;DHT22;4792;50.088;8.122;2022-10-16T10:09:22;16.50;99.90
9509;DHT22;4792;50.088;8.122;2022-10-16T10:11:53;16.70;99.90
9509;DHT22;4792;50.088;8.122;2022-10-16T10:14:27;16.80;99.90
9509;DHT22;4792;50.088;8.122;2022-10-16T10:17:10;16.80;99.90
9509;DHT22;4792;50.088;8.122;2022-10-16T10:19:42;16.80;99.90
9509;DHT22;4792;50.088;8.122;2022-10-16T10:22:25;16.80;99.90
9509;DHT22;4792;50.088;8.122;2022-10-16T10:25:19;16.90;99.90
9509;DHT22;4792;50.088;8.122;2022-10-16T10:28:07;17.10;99.90
9509;DHT22;4792;50.088;8.122;2022-10-16T10:30:42;17.30;99.90
9509;DHT22;4792;50.088;8.122;2022-10-16T10:33:21;17.20;99.90
9509;DHT22;4792;50.088;8.122;2022-10-16T10:35:56;17.20;99.90
9509;DHT22;4792;50.088;8.122;2022-10-16T10:38:38;17.10;99.90
9509;DHT22;4792;50.088;8.122;2022-10-16T10:44:03;17.00;99.90
9509;DHT22;4792;50.088;8.122;2022-10-16T10:46:36;16.90;99.90
9509;DHT22;4792;50.088;8.122;2022-10-16T10:49:34;16.70;99.90
9509;DHT22;4792;50.088;8.122;2022-10-16T10:52:20;16.70;99.90
9509;DHT22;4792;50.088;8.122;2022-10-16T10:54:58;16.60;99.90
9509;DHT22;4792;50.088;8.122;2022-10-16T10:57:34;16.60;99.90
9509;DHT22;4792;50.088;8.122;2022-10-16T11:00:13;16.60;99.90
9509;DHT22;4792;50.088;8.122;2022-10-16T11:02:48;16.60;99.90
9509;DHT22;4792;50.088;8.122;2022-10-16T11:05:27;16.50;99.90
9509;DHT22;4792;50.088;8.122;2022-10-16T11:08:00;16.50;99.90
9509;DHT22;4792;50.088;8.122;2022-10-16T11:10:39;16.50;99.90
9509;DHT22;4792;50.088;8.122;2022-10-16T11:13:19;16.50;99.90
9509;DHT22;4792;50.088;8.122;2022-10-16T11:15:53;16.50;99.90
9509;DHT22;4792;50.088;8.122;2022-10-16T11:18:32;16.50;99.90
9509;DHT22;4792;50.088;8.122;2022-10-16T11:21:05;16.40;99.90
9509;DHT22;4792;50.088;8.122;2022-10-16T11:23:40;16.40;99.90
9509;DHT22;4792;50.088;8.122;2022-10-16T11:26:16;16.30;99.90
9509;DHT22;4792;50.088;8.122;2022-10-16T11:28:48;16.20;99.90
9509;DHT22;4792;50.088;8.122;2022-10-16T11:31:22;16.20;99.90
9509;DHT22;4792;50.088;8.122;2022-10-16T11:33:59;16.20;99.90
9509;DHT22;4792;50.088;8.122;2022-10-16T11:36:38;16.30;99.90
9509;DHT22;4792;50.088;8.122;2022-10-16T11:39:16;16.30;99.90
9509;DHT22;4792;50.088;8.122;2022-10-16T11:41:50;16.30;99.90
9509;DHT22;4792;50.088;8.122;2022-10-16T11:44:40;16.30;99.90
9509;DHT22;4792;50.088;8.122;2022-10-16T11:47:24;16.40;99.90
9509;DHT22;4792;50.088;8.122;2022-10-16T11:50:20;16.40;99.90
9509;DHT22;4792;50.088;8.122;2022-10-16T11:52:55;16.40;99.90
9509;DHT22;4792;50.088;8.122;2022-10-16T11:55:32;16.40;99.90
9509;DHT22;4792;50.088;8.122;2022-10-16T11:58:06;16.40;99.90
9509;DHT22;4792;50.088;8.122;2022-10-16T12:00:39;16.50;99.90
9509;DHT22;4792;50.088;8.122;2022-10-16T12:03:15;16.40;99.90
9509;DHT22;4792;50.088;8.122;2022-10-16T12:06:06;16.50;99.90
9509;DHT22;4792;50.088;8.122;2022-10-16T12:08:40;16.60;99.90
9509;DHT22;4792;50.088;8.122;2022-10-16T12:11:23;16.60;99.90
9509;DHT22;4792;50.088;8.122;2022-10-16T12:14:17;16.50;99.90
9509;DHT22;4792;50.088;8.122;2022-10-16T12:16:54;16.50;99.90
9509;DHT22;4792;50.088;8.122;2022-10-16T12:19:24;16.40;99.90
9509;DHT22;4792;50.088;8.122;2022-10-16T12:21:55;16.40;99.90
9509;DHT22;4792;50.088;8.122;2022-10-16T12:24:34;16.40;99.90
9509;DHT22;4792;50.088;8.122;2022-10-16T12:27:04;16.40;99.90
9509;DHT22;4792;50.088;8.122;2022-10-16T12:29:37;16.40;99.90
9509;DHT22;4792;50.088;8.122;2022-10-16T12:32:20;16.30;99.90
9509;DHT22;4792;50.088;8.122;2022-10-16T12:35:19;16.40;99.90
9509;DHT22;4792;50.088;8.122;2022-10-16T12:37:48;16.60;99.90
9509;DHT22;4792;50.088;8.122;2022-10-16T12:40:26;16.70;99.90
9509;DHT22;4792;50.088;8.122;2022-10-16T12:42:55;17.10;99.90
9509;DHT22;4792;50.088;8.122;2022-10-16T12:45:30;17.80;99.90
9509;DHT22;4792;50.088;8.122;2022-10-16T12:48:00;18.20;99.90
9509;DHT22;4792;50.088;8.122;2022-10-16T12:50:33;18.30;99.90
9509;DHT22;4792;50.088;8.122;2022-10-16T12:53:04;18.30;99.90
9509;DHT22;4792;50.088;8.122;2022-10-16T12:55:51;18.30;99.90
9509;DHT22;4792;50.088;8.122;2022-10-16T13:01:26;18.10;99.90
9509;DHT22;4792;50.088;8.122;2022-10-16T13:06:53;18.20;99.90
9509;DHT22;4792;50.088;8.122;2022-10-16T13:09:40;18.40;99.90
9509;DHT22;4792;50.088;8.122;2022-10-16T13:12:19;18.60;99.90
9509;DHT22;4792;50.088;8.122;2022-10-16T13:15:19;18.90;99.90
9509;DHT22;4792;50.088;8.122;2022-10-16T13:17:57;19.70;99.90
9509;DHT22;4792;50.088;8.122;2022-10-16T13:20:32;20.30;99.90
9509;DHT22;4792;50.088;8.122;2022-10-16T13:23:10;20.70;99.90
9509;DHT22;4792;50.088;8.122;2022-10-16T13:25:50;20.70;99.90
9509;DHT22;4792;50.088;8.122;2022-10-16T13:28:28;20.70;99.90
9509;DHT22;4792;50.088;8.122;2022-10-16T13:30:59;20.60;99.90
9509;DHT22;4792;50.088;8.122;2022-10-16T13:33:32;20.40;99.90
9509;DHT22;4792;50.088;8.122;2022-10-16T13:36:02;20.30;99.90
9509;DHT22;4792;50.088;8.122;2022-10-16T13:38:32;20.20;99.90
9509;DHT22;4792;50.088;8.122;2022-10-16T13:41:02;19.90;99.90
9509;DHT22;4792;50.088;8.122;2022-10-16T13:43:33;19.60;99.90
9509;DHT22;4792;50.088;8.122;2022-10-16T13:46:04;19.40;99.90
9509;DHT22;4792;50.088;8.122;2022-10-16T13:48:34;19.20;99.90
9509;DHT22;4792;50.088;8.122;2022-10-16T13:51:11;19.20;99.90
9509;DHT22;4792;50.088;8.122;2022-10-16T13:53:40;19.00;99.90
9509;DHT22;4792;50.088;8.122;2022-10-16T13:56:11;19.00;99.90
9509;DHT22;4792;50.088;8.122;2022-10-16T13:58:40;18.90;99.90
9509;DHT22;4792;50.088;8.122;2022-10-16T14:01:17;18.80;99.90
9509;DHT22;4792;50.088;8.122;2022-10-16T14:03:48;18.80;99.90
9509;DHT22;4792;50.088;8.122;2022-10-16T14:06:19;18.80;99.90
9509;DHT22;4792;50.088;8.122;2022-10-16T14:08:52;18.70;99.90
9509;DHT22;4792;50.088;8.122;2022-10-16T14:11:22;18.70;99.90
9509;DHT22;4792;50.088;8.122;2022-10-16T14:13:51;18.80;99.90
9509;DHT22;4792;50.088;8.122;2022-10-16T14:16:21;18.80;99.90
9509;DHT22;4792;50.088;8.122;2022-10-16T14:18:56;18.70;99.90
9509;DHT22;4792;50.088;8.122;2022-10-16T14:21:25;18.70;99.90
9509;DHT22;4792;50.088;8.122;2022-10-16T14:23:54;18.70;99.90
9509;DHT22;4792;50.088;8.122;2022-10-16T14:26:24;18.60;99.90
9509;DHT22;4792;50.088;8.122;2022-10-16T14:29:09;18.60;99.90
9509;DHT22;4792;50.088;8.122;2022-10-16T14:31:38;18.60;99.90
9509;DHT22;4792;50.088;8.122;2022-10-16T14:34:24;18.60;99.90
9509;DHT22;4792;50.088;8.122;2022-10-16T14:36:54;18.60;99.90
9509;DHT22;4792;50.088;8.122;2022-10-16T14:39:24;18.50;99.90
9509;DHT22;4792;50.088;8.122;2022-10-16T14:41:56;18.50;99.90
9509;DHT22;4792;50.088;8.122;2022-10-16T14:44:28;18.50;99.90
9509;DHT22;4792;50.088;8.122;2022-10-16T14:46:57;18.30;99.90
9509;DHT22;4792;50.088;8.122;2022-10-16T14:49:28;18.20;99.90
9509;DHT22;4792;50.088;8.122;2022-10-16T14:51:58;18.20;99.90
9509;DHT22;4792;50.088;8.122;2022-10-16T14:54:26;18.10;99.90
9509;DHT22;4792;50.088;8.122;2022-10-16T14:56:57;18.10;99.90
9509;DHT22;4792;50.088;8.122;2022-10-16T14:59:30;18.10;99.90
9509;DHT22;4792;50.088;8.122;2022-10-16T15:02:01;18.10;99.90
9509;DHT22;4792;50.088;8.122;2022-10-16T15:04:35;18.10;99.90
9509;DHT22;4792;50.088;8.122;2022-10-16T15:07:04;18.10;99.90
9509;DHT22;4792;50.088;8.122;2022-10-16T15:09:32;18.00;99.90
9509;DHT22;4792;50.088;8.122;2022-10-16T15:12:00;18.00;99.90
9509;DHT22;4792;50.088;8.122;2022-10-16T15:14:28;17.90;99.90
9509;DHT22;4792;50.088;8.122;2022-10-16T15:16:57;17.90;99.90
9509;DHT22;4792;50.088;8.122;2022-10-16T15:19:25;17.90;99.90
9509;DHT22;4792;50.088;8.122;2022-10-16T15:21:54;17.90;99.90
9509;DHT22;4792;50.088;8.122;2022-10-16T15:24:23;17.80;99.90
9509;DHT22;4792;50.088;8.122;2022-10-16T15:26:51;17.80;99.90
9509;DHT22;4792;50.088;8.122;2022-10-16T15:29:19;17.80;99.90
9509;DHT22;4792;50.088;8.122;2022-10-16T15:31:47;17.70;99.90
9509;DHT22;4792;50.088;8.122;2022-10-16T15:34:15;17.70;99.90
9509;DHT22;4792;50.088;8.122;2022-10-16T15:36:45;17.70;99.90
9509;DHT22;4792;50.088;8.122;2022-10-16T15:39:16;17.70;99.90
9509;DHT22;4792;50.088;8.122;2022-10-16T15:41:45;17.70;99.90
9509;DHT22;4792;50.088;8.122;2022-10-16T15:44:17;17.70;99.90
9509;DHT22;4792;50.088;8.122;2022-10-16T15:46:45;17.70;99.90
9509;DHT22;4792;50.088;8.122;2022-10-16T15:49:13;17.60;99.90
9509;DHT22;4792;50.088;8.122;2022-10-16T15:51:41;17.60;99.90
9509;DHT22;4792;50.088;8.122;2022-10-16T15:54:10;17.60;99.90
9509;DHT22;4792;50.088;8.122;2022-10-16T15:56:39;17.60;99.90
9509;DHT22;4792;50.088;8.122;2022-10-16T15:59:07;17.60;99.90
9509;DHT22;4792;50.088;8.122;2022-10-16T16:01:37;17.60;99.90
9509;DHT22;4792;50.088;8.122;2022-10-16T16:04:06;17.50;99.90
9509;DHT22;4792;50.088;8.122;2022-10-16T16:06:54;17.50;99.90
9509;DHT22;4792;50.088;8.122;2022-10-16T16:09:24;17.50;99.90
9509;DHT22;4792;50.088;8.122;2022-10-16T16:11:54;17.40;99.90
9509;DHT22;4792;50.088;8.122;2022-10-16T16:14:22;17.40;99.90
9509;DHT22;4792;50.088;8.122;2022-10-16T16:16:53;17.40;99.90
9509;DHT22;4792;50.088;8.122;2022-10-16T16:19:21;17.40;99.90
9509;DHT22;4792;50.088;8.122;2022-10-16T16:21:50;17.30;99.90
9509;DHT22;4792;50.088;8.122;2022-10-16T16:24:18;17.30;99.90
9509;DHT22;4792;50.088;8.122;2022-10-16T16:26:48;17.30;99.90
9509;DHT22;4792;50.088;8.122;2022-10-16T16:29:18;17.20;99.90
9509;DHT22;4792;50.088;8.122;2022-10-16T16:31:47;17.20;99.90
9509;DHT22;4792;50.088;8.122;2022-10-16T16:34:16;17.20;99.90
9509;DHT22;4792;50.088;8.122;2022-10-16T16:36:45;17.20;99.90
9509;DHT22;4792;50.088;8.122;2022-10-16T16:39:14;17.20;99.90
9509;DHT22;4792;50.088;8.122;2022-10-16T16:41:43;17.20;99.90
9509;DHT22;4792;50.088;8.122;2022-10-16T16:44:13;17.20;99.90